createdAt,value
2022-11-04T00:01:54.903Z,99945.53
2022-11-04T00:04:23.138Z,99939.31
2022-11-04T00:06:50.538Z,99923.16
2022-11-04T00:09:19.509Z,99924.03
2022-11-04T00:12:05.953Z,99914.09
2022-11-04T00:14:33.691Z,99910.56
2022-11-04T00:17:19.876Z,99903.94
2022-11-04T00:20:10.788Z,99880.97
2022-11-04T00:22:57.285Z,99888.41
2022-11-04T00:25:42.856Z,99872.47
2022-11-04T00:28:38.284Z,99867.94
2022-11-04T00:31:25.447Z,99863.59
2022-11-04T00:33:53.857Z,99859.09
2022-11-04T00:36:21.823Z,99844.84
2022-11-04T00:38:49.021Z,99844.06
2022-11-04T00:41:28.788Z,99836.88
2022-11-04T00:43:57.629Z,99833.22
2022-11-04T00:46:24.836Z,99816.25
2022-11-04T00:48:52.212Z,99821.44
2022-11-04T00:51:21.421Z,99814.72
2022-11-04T00:53:48.989Z,99814.19
2022-11-04T00:56:16.917Z,99813.25
2022-11-04T00:58:44.150Z,99811.66
2022-11-04T01:01:12.419Z,99805.72
2022-11-04T01:03:39.754Z,99801.22
2022-11-04T01:06:07.382Z,99797.31
2022-11-04T01:08:35.402Z,99795.44
2022-11-04T01:11:03.565Z,99793.63
2022-11-04T01:13:30.807Z,99781.00
2022-11-04T01:15:58.998Z,99778.03
2022-11-04T01:18:26.714Z,99773.41
2022-11-04T01:20:53.858Z,99760.75
2022-11-04T01:23:21.052Z,99761.84
2022-11-04T01:25:48.606Z,99755.47
2022-11-04T01:28:15.827Z,99753.59
2022-11-04T01:30:43.063Z,99749.00
2022-11-04T01:33:10.186Z,99738.47
2022-11-04T01:35:37.390Z,99735.41
2022-11-04T01:38:04.694Z,99735.41
2022-11-04T01:40:36.091Z,99721.50
2022-11-04T01:43:03.860Z,99722.00
2022-11-04T01:45:31.133Z,99719.84
2022-11-04T01:48:10.339Z,99719.94
2022-11-04T01:50:37.558Z,99711.47
2022-11-04T01:53:12.604Z,99716.41
2022-11-04T01:55:41.943Z,99695.81
2022-11-04T01:58:13.013Z,99696.84
2022-11-04T02:00:40.733Z,99693.13
2022-11-04T02:03:10.194Z,99680.50
2022-11-04T02:05:38.683Z,99678.28
2022-11-04T02:08:06.891Z,99657.78
2022-11-04T02:10:34.085Z,99653.28
2022-11-04T02:13:03.187Z,99639.31
2022-11-04T02:15:36.561Z,99633.38
2022-11-04T02:18:11.392Z,99632.50
2022-11-04T02:21:00.771Z,99619.91
2022-11-04T02:23:51.539Z,99603.97
2022-11-04T02:26:30.733Z,99605.25
2022-11-04T02:29:07.443Z,99602.38
2022-11-04T02:31:37.732Z,99606.00
2022-11-04T02:34:11.821Z,99597.59
2022-11-04T02:36:50.293Z,99586.38
2022-11-04T02:39:17.432Z,99586.38
2022-11-04T02:41:53.403Z,99575.00
2022-11-04T02:44:35.992Z,99579.19
2022-11-04T02:47:13.603Z,99567.16
2022-11-04T02:49:44.459Z,99562.44
2022-11-04T02:52:17.160Z,99562.44
2022-11-04T02:54:44.359Z,99555.38
2022-11-04T02:57:13.796Z,99540.03
2022-11-04T02:59:45.304Z,99544.34
2022-11-04T05:05:32.374Z,99384.94
2022-11-04T05:08:09.392Z,99396.06
2022-11-04T05:10:36.958Z,99402.19
2022-11-04T05:13:22.788Z,99394.19
2022-11-04T05:15:50.145Z,99380.91
2022-11-04T05:18:18.026Z,99387.03
2022-11-04T05:20:45.318Z,99390.56
2022-11-04T05:23:13.659Z,99385.94
2022-11-04T05:25:42.215Z,99389.94
2022-11-04T05:28:10.481Z,99367.94
2022-11-04T05:30:38.390Z,99366.75
2022-11-04T05:33:06.557Z,99379.38
2022-11-04T05:35:34.726Z,99375.81
2022-11-04T05:38:02.215Z,99383.75
2022-11-04T05:40:29.562Z,99369.50
2022-11-04T05:42:58.983Z,99358.16
2022-11-04T05:45:27.508Z,99363.66
2022-11-04T05:48:01.010Z,99353.72
2022-11-04T05:50:30.163Z,99347.03
2022-11-04T05:52:58.710Z,99354.44
2022-11-04T05:55:26.842Z,99350.91
2022-11-04T05:57:54.504Z,99348.63
2022-11-04T06:00:22.007Z,99356.66
2022-11-04T06:02:49.468Z,99352.56
2022-11-04T06:05:16.977Z,99354.94
2022-11-04T06:07:44.311Z,99358.72
2022-11-04T06:10:11.632Z,99346.06
2022-11-04T06:12:38.964Z,99335.75
2022-11-04T06:15:07.015Z,99356.16
2022-11-04T06:17:34.730Z,99345.38
2022-11-04T06:20:02.186Z,99362.31
2022-11-04T06:22:48.368Z,99373.25
2022-11-04T06:25:15.843Z,99377.88
2022-11-04T06:27:43.241Z,99386.97
2022-11-04T06:30:11.435Z,99371.06
2022-11-04T06:32:38.834Z,99363.34
2022-11-04T06:35:08.886Z,99361.16
2022-11-04T06:37:38.242Z,99370.06
2022-11-04T06:40:06.275Z,99381.75
2022-11-04T06:42:33.656Z,99379.16
2022-11-04T06:45:00.923Z,99393.53
2022-11-04T06:47:28.399Z,99406.06
2022-11-04T06:49:55.784Z,99418.09
2022-11-04T06:52:23.093Z,99428.91
2022-11-04T06:54:54.197Z,99426.34
2022-11-04T06:57:21.738Z,99415.03
2022-11-04T06:59:49.135Z,99423.97
2022-11-04T07:02:16.645Z,99449.91
2022-11-04T07:04:44.281Z,99450.34
2022-11-04T07:07:11.781Z,99463.66
2022-11-04T07:09:39.321Z,99457.91
2022-11-04T07:12:06.684Z,99455.69
2022-11-04T07:14:34.115Z,99471.53
2022-11-04T07:17:02.105Z,99471.59
2022-11-04T07:19:29.450Z,99468.13
2022-11-04T07:21:57.885Z,99480.28
2022-11-04T07:24:25.311Z,99480.38
2022-11-04T07:26:55.795Z,99516.34
2022-11-04T07:29:23.272Z,99516.78
2022-11-04T07:31:50.730Z,99552.28
2022-11-04T07:34:18.171Z,99541.09
2022-11-04T07:36:45.700Z,99541.75
2022-11-04T07:39:13.132Z,99536.69
2022-11-04T07:41:40.532Z,99548.41
2022-11-04T07:44:11.599Z,99548.91
2022-11-04T07:46:39.230Z,99524.66
2022-11-04T07:49:06.697Z,99509.25
2022-11-04T07:51:34.914Z,99517.94
2022-11-04T07:54:02.834Z,99525.78
2022-11-04T07:56:30.241Z,99522.25
2022-11-04T07:58:58.255Z,99512.16
2022-11-04T08:01:25.761Z,99456.78
2022-11-04T08:03:53.371Z,99408.78
2022-11-04T08:06:21.620Z,99381.53
2022-11-04T08:08:49.246Z,99428.50
2022-11-04T08:11:24.909Z,99463.31
2022-11-04T08:13:52.273Z,99442.03
2022-11-04T08:16:22.191Z,99442.88
2022-11-04T08:18:52.628Z,99426.63
2022-11-04T08:21:20.873Z,99425.56
2022-11-04T08:23:48.391Z,99438.06
2022-11-04T08:26:18.268Z,99449.00
2022-11-04T08:28:46.579Z,99463.53
2022-11-04T08:31:24.912Z,99475.69
2022-11-04T08:33:53.969Z,99492.16
2022-11-04T08:36:24.733Z,99481.78
2022-11-04T08:38:52.874Z,99481.94
2022-11-04T08:41:23.769Z,99491.47
2022-11-04T08:43:51.187Z,99496.50
2022-11-04T08:46:19.637Z,99504.59
2022-11-04T08:48:47.223Z,99491.78
2022-11-04T08:51:19.619Z,99479.72
2022-11-04T08:53:46.962Z,99483.69
2022-11-04T08:56:20.903Z,99488.63
2022-11-04T08:59:07.075Z,99486.34
2022-11-04T09:01:36.530Z,99478.72
2022-11-04T09:04:05.516Z,99465.22
2022-11-04T09:06:37.599Z,99484.72
2022-11-04T09:09:07.328Z,99496.19
2022-11-04T09:11:40.195Z,99489.19
2022-11-04T09:14:08.135Z,99489.94
2022-11-04T09:16:37.425Z,99481.91
2022-11-04T09:19:05.082Z,99476.94
2022-11-04T09:21:32.386Z,99474.44
2022-11-04T09:23:59.689Z,99477.66
2022-11-04T09:26:27.095Z,99480.94
2022-11-04T09:28:56.134Z,99478.75
2022-11-04T09:31:24.309Z,99480.38
2022-11-04T09:33:51.713Z,99486.59
2022-11-04T09:36:19.076Z,99481.16
2022-11-04T09:38:46.788Z,99489.09
2022-11-04T09:41:25.935Z,99486.78
2022-11-04T09:43:57.093Z,99486.81
2022-11-04T09:46:24.503Z,99484.41
2022-11-04T09:48:55.307Z,99485.56
2022-11-04T09:51:52.532Z,99484.50
2022-11-04T09:54:22.643Z,99491.59
2022-11-04T09:56:51.722Z,99496.97
2022-11-04T09:59:34.649Z,99496.66
2022-11-04T10:02:11.852Z,99494.84
2022-11-04T10:05:02.354Z,99492.91
2022-11-04T10:07:38.688Z,99490.13
2022-11-04T10:10:16.715Z,99490.91
2022-11-04T10:13:02.222Z,99490.25
2022-11-04T10:15:38.895Z,99500.50
2022-11-04T10:18:44.021Z,99503.53
2022-11-04T10:21:35.812Z,99500.00
2022-11-04T10:24:15.473Z,99506.41
2022-11-04T10:26:47.257Z,99502.25
2022-11-04T10:29:20.470Z,99502.56
2022-11-04T10:31:48.129Z,99499.09
2022-11-04T10:34:23.728Z,99511.31
2022-11-04T10:36:51.770Z,99505.38
2022-11-04T10:39:28.068Z,99500.66
2022-11-04T10:41:58.120Z,99501.69
2022-11-04T10:44:32.543Z,99496.34
2022-11-04T10:47:31.710Z,99499.81
2022-11-04T10:50:27.898Z,99499.44
2022-11-04T10:53:10.306Z,99500.13
2022-11-04T10:55:51.393Z,99502.72
2022-11-04T10:58:25.790Z,99500.03
2022-11-04T11:00:54.665Z,99489.75
2022-11-04T11:03:34.345Z,99494.69
2022-11-04T11:06:29.355Z,99498.22
2022-11-04T11:09:15.361Z,99495.78
2022-11-04T11:11:53.337Z,99504.03
2022-11-04T11:14:36.734Z,99491.19
2022-11-04T11:17:14.345Z,99483.75
2022-11-04T11:19:59.406Z,99488.25
2022-11-04T11:22:44.703Z,99493.59
2022-11-04T11:25:26.877Z,99487.47
2022-11-04T11:28:22.228Z,99485.09
2022-11-04T11:31:05.690Z,99482.19
2022-11-04T11:33:50.453Z,99482.31
2022-11-04T11:36:37.937Z,99485.63
2022-11-04T11:39:21.981Z,99471.84
2022-11-04T11:41:54.783Z,99473.28
2022-11-04T11:44:46.937Z,99470.78
2022-11-04T11:47:29.758Z,99460.03
2022-11-04T11:50:17.955Z,99463.47
2022-11-04T11:53:15.232Z,99472.28
2022-11-04T11:56:15.400Z,99480.47
2022-11-04T12:02:32.741Z,99474.72
2022-11-04T12:11:40.399Z,99475.00
2022-11-04T12:14:18.814Z,99458.94
2022-11-04T12:17:28.235Z,99471.06
2022-11-04T12:20:20.909Z,99456.09
2022-11-04T12:23:29.362Z,99460.31
2022-11-04T12:26:16.869Z,99467.06
2022-11-04T12:29:27.665Z,99470.13
2022-11-04T12:32:27.024Z,99475.31
2022-11-04T12:35:07.683Z,99475.09
2022-11-04T12:38:05.212Z,99472.19
2022-11-04T12:41:34.226Z,99477.69
2022-11-04T12:43:57.001Z,99475.56
2022-11-04T12:46:27.092Z,99479.00
2022-11-04T12:49:05.968Z,99477.47
2022-11-04T12:52:09.431Z,99469.72
2022-11-04T12:54:54.103Z,99477.56
2022-11-04T12:57:44.488Z,99487.69
2022-11-04T13:00:15.394Z,99484.47
2022-11-04T13:02:45.533Z,99485.97
2022-11-04T13:05:39.241Z,99486.47
2022-11-04T13:08:29.909Z,99488.19
2022-11-04T13:11:31.376Z,99477.41
2022-11-04T13:14:32.349Z,99485.47
2022-11-04T13:17:06.905Z,99486.94
2022-11-04T13:19:40.936Z,99477.91
2022-11-04T13:22:14.248Z,99490.38
2022-11-04T13:24:51.375Z,99480.00
2022-11-04T13:27:23.567Z,99471.66
2022-11-04T13:30:15.513Z,99480.88
2022-11-04T13:32:52.758Z,99471.19
2022-11-04T13:35:38.318Z,99464.56
2022-11-04T13:38:12.704Z,99456.53
2022-11-04T13:40:55.600Z,99445.31
2022-11-04T13:43:38.174Z,99440.34
2022-11-04T13:46:08.678Z,99437.00
2022-11-04T13:48:39.237Z,99431.03
2022-11-04T13:51:09.883Z,99424.78
2022-11-04T13:53:49.640Z,99434.69
2022-11-04T13:56:40.611Z,99439.28
2022-11-04T13:59:27.470Z,99444.56
2022-11-04T14:02:19.821Z,99445.31
2022-11-04T14:04:47.610Z,99446.09
2022-11-04T14:07:18.137Z,99446.38
2022-11-04T14:09:55.580Z,99445.78
2022-11-04T14:12:32.698Z,99445.19
2022-11-04T14:15:12.530Z,99448.78
2022-11-04T14:17:39.896Z,99437.63
2022-11-04T14:20:11.569Z,99443.53
2022-11-04T14:22:56.527Z,99442.03
2022-11-04T14:25:34.934Z,99434.25
2022-11-04T14:28:14.414Z,99430.31
2022-11-04T14:30:53.038Z,99423.53
2022-11-04T14:33:36.528Z,99429.00
2022-11-04T14:36:25.407Z,99425.34
2022-11-04T14:39:07.852Z,99426.88
2022-11-04T14:41:41.385Z,99423.22
2022-11-04T14:44:18.562Z,99425.34
2022-11-04T14:46:49.413Z,99412.97
2022-11-04T14:49:34.720Z,99415.28
2022-11-04T14:52:02.263Z,99406.59
2022-11-04T14:54:32.525Z,99403.47
2022-11-04T14:57:21.497Z,99389.41
2022-11-04T14:59:49.923Z,99398.69
2022-11-04T15:02:25.874Z,99397.47
2022-11-04T15:04:59.452Z,99403.88
2022-11-04T15:07:38.707Z,99394.53
2022-11-04T15:10:25.950Z,99410.81
2022-11-04T15:13:00.226Z,99406.00
2022-11-04T15:15:45.341Z,99407.34
2022-11-04T15:18:16.552Z,99403.22
2022-11-04T15:20:54.413Z,99403.09
2022-11-04T15:23:33.764Z,99401.91
2022-11-04T15:26:02.416Z,99402.75
2022-11-04T15:28:36.640Z,99400.06
2022-11-04T15:31:13.256Z,99402.00
2022-11-04T15:33:44.380Z,99400.81
2022-11-04T15:36:27.928Z,99390.97
2022-11-04T15:38:59.317Z,99386.69
2022-11-04T15:41:47.970Z,99386.59
2022-11-04T15:44:25.795Z,99380.69
2022-11-04T15:46:56.240Z,99377.09
2022-11-04T15:49:26.388Z,99380.09
2022-11-04T15:51:59.919Z,99385.78
2022-11-04T15:54:35.508Z,99384.44
2022-11-04T15:57:13.911Z,99396.41
2022-11-04T15:59:48.472Z,99399.53
2022-11-04T16:02:26.225Z,99397.22
2022-11-04T16:05:10.558Z,99390.75
2022-11-04T16:07:40.508Z,99404.41
2022-11-04T16:10:32.592Z,99395.69
2022-11-04T16:13:04.360Z,99402.13
2022-11-04T16:15:34.536Z,99402.41
2022-11-04T16:18:03.726Z,99408.28
2022-11-04T16:20:32.533Z,99415.81
2022-11-04T16:23:01.868Z,99416.19
2022-11-04T16:25:34.326Z,99417.25
2022-11-04T16:28:02.673Z,99414.97
2022-11-04T16:30:30.733Z,99413.94
2022-11-04T16:33:10.561Z,99414.97
2022-11-04T16:35:42.684Z,99427.59
2022-11-04T16:38:10.179Z,99431.31
2022-11-04T16:40:37.548Z,99431.59
2022-11-04T16:43:04.950Z,99434.16
2022-11-04T16:45:38.014Z,99430.84
2022-11-04T16:48:05.644Z,99434.38
2022-11-04T16:50:33.036Z,99432.81
2022-11-04T16:53:02.563Z,99432.81
2022-11-04T16:55:30.738Z,99435.41
2022-11-04T16:58:04.689Z,99443.22
2022-11-04T17:00:33.215Z,99447.44
2022-11-04T17:03:02.020Z,99455.19
2022-11-04T17:05:29.401Z,99457.94
2022-11-04T17:08:04.445Z,99462.44
2022-11-04T17:10:36.327Z,99460.31
2022-11-04T17:13:03.986Z,99464.72
2022-11-04T17:15:31.413Z,99479.97
2022-11-04T17:17:58.726Z,99478.34
2022-11-04T17:20:26.096Z,99481.00
2022-11-04T17:22:53.484Z,99486.66
2022-11-04T17:25:24.599Z,99484.41
2022-11-04T17:27:52.360Z,99490.66
2022-11-04T17:30:21.832Z,99492.88
2022-11-04T17:32:49.398Z,99502.72
2022-11-04T17:35:17.532Z,99505.28
2022-11-04T17:37:45.537Z,99509.41
2022-11-04T17:40:18.404Z,99521.25
2022-11-04T17:43:10.348Z,99526.78
2022-11-04T17:45:41.561Z,99531.38
2022-11-04T17:48:10.293Z,99547.09
2022-11-04T17:50:39.547Z,99548.88
2022-11-04T17:53:07.420Z,99546.75
2022-11-04T17:56:15.886Z,99551.91
2022-11-04T17:58:43.735Z,99550.97
2022-11-04T18:01:13.152Z,99550.19
2022-11-04T18:03:41.540Z,99556.56
2022-11-04T18:06:11.892Z,99557.50
2022-11-04T18:08:39.964Z,99568.34
2022-11-04T18:11:10.434Z,99579.13
2022-11-04T18:13:38.007Z,99581.13
2022-11-04T18:16:13.331Z,99580.16
2022-11-04T18:18:40.850Z,99581.88
2022-11-04T18:21:09.044Z,99574.81
2022-11-04T18:23:36.707Z,99584.66
2022-11-04T18:26:09.317Z,99583.97
2022-11-04T18:28:38.203Z,99593.00
2022-11-04T18:31:18.251Z,99592.63
2022-11-04T18:33:45.604Z,99602.38
2022-11-04T18:36:12.917Z,99599.50
2022-11-04T18:38:40.353Z,99603.06
2022-11-04T18:41:07.698Z,99620.28
2022-11-04T18:43:35.677Z,99615.88
2022-11-04T18:46:13.979Z,99614.88
2022-11-04T18:48:42.392Z,99612.41
2022-11-04T18:51:12.218Z,99621.56
2022-11-04T18:53:39.928Z,99623.38
2022-11-04T18:56:10.238Z,99622.72
2022-11-04T18:58:39.171Z,99632.47
2022-11-04T19:01:08.055Z,99634.25
2022-11-04T19:03:35.939Z,99637.59
2022-11-04T19:06:12.005Z,99632.44
2022-11-04T19:08:46.316Z,99643.81
2022-11-04T19:11:21.383Z,99633.50
2022-11-04T19:13:53.123Z,99638.00
2022-11-04T19:16:20.710Z,99650.06
2022-11-04T19:18:49.427Z,99648.44
2022-11-04T19:21:19.570Z,99647.09
2022-11-04T19:23:47.231Z,99639.31
2022-11-04T19:26:25.315Z,99647.75
2022-11-04T19:28:52.775Z,99641.06
2022-11-04T19:31:23.305Z,99645.28
2022-11-04T19:33:51.087Z,99655.59
2022-11-04T19:36:20.923Z,99653.78
2022-11-04T19:38:51.715Z,99659.34
2022-11-04T19:41:38.139Z,99662.81
2022-11-04T19:44:09.140Z,99666.97
2022-11-04T19:46:37.269Z,99672.72
2022-11-04T19:49:05.200Z,99672.38
2022-11-04T19:51:32.579Z,99666.03
2022-11-04T19:54:00.352Z,99680.84
2022-11-04T19:56:27.889Z,99682.09
2022-11-04T19:58:55.400Z,99689.25
2022-11-04T20:01:23.965Z,99697.81
2022-11-04T20:03:52.037Z,99704.88
2022-11-04T20:06:20.303Z,99712.84
2022-11-04T20:08:48.998Z,99707.28
2022-11-04T20:11:17.577Z,99698.97
2022-11-04T20:13:46.372Z,99701.44
2022-11-04T20:16:14.070Z,99708.56
2022-11-04T20:18:41.670Z,99706.41
2022-11-04T20:21:09.891Z,99708.38
2022-11-04T20:23:37.427Z,99695.81
2022-11-04T20:26:12.923Z,99699.19
2022-11-04T20:28:44.172Z,99693.75
2022-11-04T20:31:14.554Z,99695.22
2022-11-04T20:33:41.969Z,99702.28
2022-11-04T20:36:09.692Z,99703.38
2022-11-04T20:38:37.797Z,99697.81
2022-11-04T20:41:07.178Z,99708.50
2022-11-04T20:43:36.402Z,99711.03
2022-11-04T20:46:10.722Z,99712.75
2022-11-04T20:48:39.665Z,99717.59
2022-11-04T20:51:13.524Z,99723.06
2022-11-04T20:53:41.950Z,99726.59
2022-11-04T20:56:12.787Z,99724.50
2022-11-04T20:58:42.300Z,99732.88
2022-11-04T21:01:26.295Z,99727.38
2022-11-04T21:03:54.648Z,99738.19
2022-11-04T21:06:22.027Z,99748.41
2022-11-04T21:08:49.334Z,99750.72
2022-11-04T21:11:43.056Z,99749.00
2022-11-04T21:14:13.773Z,99759.31
2022-11-04T21:16:41.414Z,99754.41
2022-11-04T21:19:08.834Z,99757.06
2022-11-04T21:21:36.115Z,99750.88
2022-11-04T21:24:05.920Z,99754.63
2022-11-04T21:26:35.212Z,99752.41
2022-11-04T21:29:08.099Z,99751.53
2022-11-04T21:31:37.693Z,99761.81
2022-11-04T21:34:05.397Z,99764.78
2022-11-04T21:36:33.596Z,99780.28
2022-11-04T21:39:01.173Z,99783.56
2022-11-04T21:41:30.433Z,99789.06
2022-11-04T21:44:02.051Z,99793.78
2022-11-04T21:47:18.987Z,99791.72
2022-11-04T21:49:46.305Z,99779.28
2022-11-04T21:52:38.479Z,99787.88
2022-11-04T21:55:06.843Z,99783.69
2022-11-04T21:57:38.414Z,99790.22
2022-11-04T22:00:08.796Z,99793.97
2022-11-04T22:02:44.303Z,99800.19
2022-11-04T22:05:12.594Z,99793.97
2022-11-04T22:07:59.149Z,99799.19
2022-11-04T22:10:27.620Z,99795.47
2022-11-04T22:12:56.008Z,99797.31
2022-11-04T22:15:42.177Z,99781.47
2022-11-04T22:18:09.511Z,99787.03
2022-11-04T22:20:37.301Z,99786.97
2022-11-04T22:23:04.671Z,99790.81
2022-11-04T22:25:32.070Z,99788.16
2022-11-04T22:27:59.462Z,99786.41
2022-11-04T22:30:26.952Z,99784.41
2022-11-04T22:32:54.403Z,99782.44
2022-11-04T22:35:21.874Z,99784.88
2022-11-04T22:37:49.365Z,99775.59
2022-11-04T22:40:16.783Z,99780.16
2022-11-04T22:42:45.553Z,99773.91
2022-11-04T22:45:16.754Z,99783.38
2022-11-04T22:47:44.566Z,99793.75
2022-11-04T22:50:12.041Z,99793.56
2022-11-04T22:52:40.172Z,99798.03
2022-11-04T22:55:26.078Z,99789.22
2022-11-04T22:58:19.289Z,99799.06
2022-11-04T23:00:55.427Z,99808.31
2022-11-04T23:03:27.223Z,99803.47
2022-11-04T23:06:10.008Z,99810.66
2022-11-04T23:08:40.255Z,99803.34
2022-11-04T23:11:34.599Z,99819.03
2022-11-04T23:14:21.614Z,99817.22
2022-11-04T23:17:09.792Z,99824.66
2022-11-04T23:20:22.041Z,99828.81
2022-11-04T23:23:08.606Z,99818.44
2022-11-04T23:25:40.197Z,99821.22
2022-11-04T23:28:26.685Z,99811.09
2022-11-04T23:30:54.474Z,99825.69
2022-11-04T23:33:45.316Z,99831.00
2022-11-04T23:36:38.920Z,99823.41
2022-11-04T23:39:07.781Z,99837.06
2022-11-04T23:41:57.288Z,99834.72
2022-11-04T23:44:43.706Z,99842.91
2022-11-04T23:47:30.227Z,99840.31
2022-11-04T23:50:22.507Z,99850.97
2022-11-04T23:53:11.401Z,99863.53
2022-11-04T23:56:42.544Z,99873.16
2022-11-04T23:59:30.372Z,99869.81
